sensor_id;sensor_type;location;lat;lon;timestamp;temperature;humidity
6054;DHT22;3055;50.886;14.814;2022-12-07T00:01:47;3.10;99.90
6054;DHT22;3055;50.886;14.814;2022-12-07T00:04:16;3.00;99.90
6054;DHT22;3055;50.886;14.814;2022-12-07T00:06:50;3.00;99.90
6054;DHT22;3055;50.886;14.814;2022-12-07T00:09:17;3.00;99.90
6054;DHT22;3055;50.886;14.814;2022-12-07T00:11:48;3.00;99.90
6054;DHT22;3055;50.886;14.814;2022-12-07T00:14:16;2.90;99.90
6054;DHT22;3055;50.886;14.814;2022-12-07T00:16:44;2.90;99.90
6054;DHT22;3055;50.886;14.814;2022-12-07T00:19:12;2.90;99.90
6054;DHT22;3055;50.886;14.814;2022-12-07T00:21:39;2.90;99.90
6054;DHT22;3055;50.886;14.814;2022-12-07T00:24:09;2.90;99.90
6054;DHT22;3055;50.886;14.814;2022-12-07T00:26:38;2.90;99.90
6054;DHT22;3055;50.886;14.814;2022-12-07T00:29:08;2.90;99.90
6054;DHT22;3055;50.886;14.814;2022-12-07T00:31:37;3.00;99.90
6054;DHT22;3055;50.886;14.814;2022-12-07T00:34:05;3.00;99.90
6054;DHT22;3055;50.886;14.814;2022-12-07T00:36:32;3.00;99.90
6054;DHT22;3055;50.886;14.814;2022-12-07T00:39:00;3.00;99.90
6054;DHT22;3055;50.886;14.814;2022-12-07T00:41:29;3.00;99.90
6054;DHT22;3055;50.886;14.814;2022-12-07T00:43:57;3.00;99.90
6054;DHT22;3055;50.886;14.814;2022-12-07T00:46:25;3.00;99.90
6054;DHT22;3055;50.886;14.814;2022-12-07T00:48:52;3.00;99.90
6054;DHT22;3055;50.886;14.814;2022-12-07T00:51:21;3.00;99.90
6054;DHT22;3055;50.886;14.814;2022-12-07T00:53:49;3.10;99.90
6054;DHT22;3055;50.886;14.814;2022-12-07T00:56:18;3.10;99.90
6054;DHT22;3055;50.886;14.814;2022-12-07T00:58:52;3.20;99.90
6054;DHT22;3055;50.886;14.814;2022-12-07T01:01:19;3.20;99.90
6054;DHT22;3055;50.886;14.814;2022-12-07T01:03:46;3.30;99.90
6054;DHT22;3055;50.886;14.814;2022-12-07T01:06:14;3.30;99.90
6054;DHT22;3055;50.886;14.814;2022-12-07T01:08:42;3.30;99.90
6054;DHT22;3055;50.886;14.814;2022-12-07T01:11:12;3.30;99.90
6054;DHT22;3055;50.886;14.814;2022-12-07T01:13:40;3.30;99.90
6054;DHT22;3055;50.886;14.814;2022-12-07T01:16:11;3.30;99.90
6054;DHT22;3055;50.886;14.814;2022-12-07T01:18:39;3.30;99.90
6054;DHT22;3055;50.886;14.814;2022-12-07T01:21:09;3.20;99.90
6054;DHT22;3055;50.886;14.814;2022-12-07T01:23:37;3.20;99.90
6054;DHT22;3055;50.886;14.814;2022-12-07T01:26:06;3.20;99.90
6054;DHT22;3055;50.886;14.814;2022-12-07T01:28:34;3.20;99.90
6054;DHT22;3055;50.886;14.814;2022-12-07T01:31:03;3.30;99.90
6054;DHT22;3055;50.886;14.814;2022-12-07T01:33:34;3.30;99.90
6054;DHT22;3055;50.886;14.814;2022-12-07T01:36:03;3.30;99.90
6054;DHT22;3055;50.886;14.814;2022-12-07T01:38:30;3.20;99.90
6054;DHT22;3055;50.886;14.814;2022-12-07T01:40:57;3.20;99.90
6054;DHT22;3055;50.886;14.814;2022-12-07T01:43:26;3.20;99.90
6054;DHT22;3055;50.886;14.814;2022-12-07T01:45:54;3.30;99.90
6054;DHT22;3055;50.886;14.814;2022-12-07T01:48:24;3.20;99.90
6054;DHT22;3055;50.886;14.814;2022-12-07T01:50:56;3.30;99.90
6054;DHT22;3055;50.886;14.814;2022-12-07T01:53:28;3.30;99.90
6054;DHT22;3055;50.886;14.814;2022-12-07T01:55:57;3.30;99.90
6054;DHT22;3055;50.886;14.814;2022-12-07T01:58:25;3.30;99.90
6054;DHT22;3055;50.886;14.814;2022-12-07T02:00:52;3.30;99.90
6054;DHT22;3055;50.886;14.814;2022-12-07T02:03:23;3.20;99.90
6054;DHT22;3055;50.886;14.814;2022-12-07T02:05:54;3.20;99.90
6054;DHT22;3055;50.886;14.814;2022-12-07T02:08:22;3.20;99.90
6054;DHT22;3055;50.886;14.814;2022-12-07T02:10:49;3.20;99.90
6054;DHT22;3055;50.886;14.814;2022-12-07T02:13:19;3.20;99.90
6054;DHT22;3055;50.886;14.814;2022-12-07T02:16:06;3.10;99.90
6054;DHT22;3055;50.886;14.814;2022-12-07T02:18:48;3.10;99.90
6054;DHT22;3055;50.886;14.814;2022-12-07T02:21:26;3.10;99.90
6054;DHT22;3055;50.886;14.814;2022-12-07T02:24:14;3.10;99.90
6054;DHT22;3055;50.886;14.814;2022-12-07T02:29:47;3.20;99.90
6054;DHT22;3055;50.886;14.814;2022-12-07T02:32:20;3.20;99.90
6054;DHT22;3055;50.886;14.814;2022-12-07T02:34:51;3.10;99.90
6054;DHT22;3055;50.886;14.814;2022-12-07T02:37:29;3.00;99.90
6054;DHT22;3055;50.886;14.814;2022-12-07T02:40:02;3.10;99.90
6054;DHT22;3055;50.886;14.814;2022-12-07T02:42:33;3.10;99.90
6054;DHT22;3055;50.886;14.814;2022-12-07T02:45:05;3.10;99.90
6054;DHT22;3055;50.886;14.814;2022-12-07T02:47:34;3.20;99.90
6054;DHT22;3055;50.886;14.814;2022-12-07T02:50:04;3.20;99.90
6054;DHT22;3055;50.886;14.814;2022-12-07T02:52:31;3.20;99.90
6054;DHT22;3055;50.886;14.814;2022-12-07T02:54:58;3.20;99.90
6054;DHT22;3055;50.886;14.814;2022-12-07T02:57:40;3.20;99.90
6054;DHT22;3055;50.886;14.814;2022-12-07T03:00:13;3.20;99.90
6054;DHT22;3055;50.886;14.814;2022-12-07T03:02:49;3.20;99.90
6054;DHT22;3055;50.886;14.814;2022-12-07T03:05:45;3.20;99.90
6054;DHT22;3055;50.886;14.814;2022-12-07T03:08:23;3.20;99.90
6054;DHT22;3055;50.886;14.814;2022-12-07T03:10:56;3.20;99.90
6054;DHT22;3055;50.886;14.814;2022-12-07T03:13:30;3.30;99.90
6054;DHT22;3055;50.886;14.814;2022-12-07T03:16:06;3.30;99.90
6054;DHT22;3055;50.886;14.814;2022-12-07T03:18:39;3.30;99.90
6054;DHT22;3055;50.886;14.814;2022-12-07T03:21:09;3.30;99.90
6054;DHT22;3055;50.886;14.814;2022-12-07T03:23:39;3.30;99.90
6054;DHT22;3055;50.886;14.814;2022-12-07T03:26:09;3.30;99.90
6054;DHT22;3055;50.886;14.814;2022-12-07T03:28:41;3.30;99.90
6054;DHT22;3055;50.886;14.814;2022-12-07T03:31:13;3.30;99.90
6054;DHT22;3055;50.886;14.814;2022-12-07T03:33:46;3.20;99.90
6054;DHT22;3055;50.886;14.814;2022-12-07T03:36:19;3.30;99.90
6054;DHT22;3055;50.886;14.814;2022-12-07T03:38:50;3.30;99.90
6054;DHT22;3055;50.886;14.814;2022-12-07T03:41:23;3.30;99.90
6054;DHT22;3055;50.886;14.814;2022-12-07T03:43:51;3.30;99.90
6054;DHT22;3055;50.886;14.814;2022-12-07T03:46:27;3.30;99.90
6054;DHT22;3055;50.886;14.814;2022-12-07T03:49:00;3.30;99.90
6054;DHT22;3055;50.886;14.814;2022-12-07T03:51:37;3.30;99.90
6054;DHT22;3055;50.886;14.814;2022-12-07T03:54:09;3.30;99.90
6054;DHT22;3055;50.886;14.814;2022-12-07T03:56:38;3.30;99.90
6054;DHT22;3055;50.886;14.814;2022-12-07T03:59:05;3.30;99.90
6054;DHT22;3055;50.886;14.814;2022-12-07T04:01:35;3.30;99.90
6054;DHT22;3055;50.886;14.814;2022-12-07T04:04:02;3.30;99.90
6054;DHT22;3055;50.886;14.814;2022-12-07T04:06:29;3.30;99.90
6054;DHT22;3055;50.886;14.814;2022-12-07T04:08:56;3.40;99.90
6054;DHT22;3055;50.886;14.814;2022-12-07T04:11:23;3.40;99.90
6054;DHT22;3055;50.886;14.814;2022-12-07T04:13:50;3.30;99.90
6054;DHT22;3055;50.886;14.814;2022-12-07T04:16:48;3.30;99.90
6054;DHT22;3055;50.886;14.814;2022-12-07T04:19:16;3.30;99.90
6054;DHT22;3055;50.886;14.814;2022-12-07T04:21:43;3.30;99.90
6054;DHT22;3055;50.886;14.814;2022-12-07T04:24:12;3.30;99.90
6054;DHT22;3055;50.886;14.814;2022-12-07T04:26:40;3.30;99.90
6054;DHT22;3055;50.886;14.814;2022-12-07T04:29:07;3.20;99.90
6054;DHT22;3055;50.886;14.814;2022-12-07T04:31:34;3.10;99.90
6054;DHT22;3055;50.886;14.814;2022-12-07T04:34:03;3.00;99.90
6054;DHT22;3055;50.886;14.814;2022-12-07T04:36:30;2.90;99.90
6054;DHT22;3055;50.886;14.814;2022-12-07T04:38:58;2.80;99.90
6054;DHT22;3055;50.886;14.814;2022-12-07T04:41:25;2.70;96.90
6054;DHT22;3055;50.886;14.814;2022-12-07T04:43:57;2.50;99.90
6054;DHT22;3055;50.886;14.814;2022-12-07T04:46:25;2.50;99.50
6054;DHT22;3055;50.886;14.814;2022-12-07T04:48:53;2.40;91.60
6054;DHT22;3055;50.886;14.814;2022-12-07T04:51:24;2.30;94.00
6054;DHT22;3055;50.886;14.814;2022-12-07T04:53:52;2.20;99.90
6054;DHT22;3055;50.886;14.814;2022-12-07T04:56:19;2.10;99.90
6054;DHT22;3055;50.886;14.814;2022-12-07T04:58:47;2.00;99.90
6054;DHT22;3055;50.886;14.814;2022-12-07T05:01:15;2.00;99.90
6054;DHT22;3055;50.886;14.814;2022-12-07T05:03:43;2.00;99.90
6054;DHT22;3055;50.886;14.814;2022-12-07T05:06:10;2.00;99.90
6054;DHT22;3055;50.886;14.814;2022-12-07T05:08:40;2.00;99.90
6054;DHT22;3055;50.886;14.814;2022-12-07T05:11:08;2.00;99.90
6054;DHT22;3055;50.886;14.814;2022-12-07T05:13:55;2.00;99.90
6054;DHT22;3055;50.886;14.814;2022-12-07T05:16:23;2.00;99.90
6054;DHT22;3055;50.886;14.814;2022-12-07T05:18:50;2.00;99.90
6054;DHT22;3055;50.886;14.814;2022-12-07T05:21:17;2.00;99.90
6054;DHT22;3055;50.886;14.814;2022-12-07T05:23:46;2.00;99.90
6054;DHT22;3055;50.886;14.814;2022-12-07T05:26:13;2.00;99.90
6054;DHT22;3055;50.886;14.814;2022-12-07T05:28:40;2.00;99.90
6054;DHT22;3055;50.886;14.814;2022-12-07T05:31:07;1.90;99.90
6054;DHT22;3055;50.886;14.814;2022-12-07T05:33:34;1.90;99.90
6054;DHT22;3055;50.886;14.814;2022-12-07T05:36:02;1.70;99.90
6054;DHT22;3055;50.886;14.814;2022-12-07T05:38:31;1.60;99.90
6054;DHT22;3055;50.886;14.814;2022-12-07T05:41:02;1.50;99.90
6054;DHT22;3055;50.886;14.814;2022-12-07T05:43:29;1.30;99.90
6054;DHT22;3055;50.886;14.814;2022-12-07T05:45:56;1.20;99.90
6054;DHT22;3055;50.886;14.814;2022-12-07T05:48:23;1.10;99.90
6054;DHT22;3055;50.886;14.814;2022-12-07T05:50:51;1.00;99.90
6054;DHT22;3055;50.886;14.814;2022-12-07T05:53:18;0.80;99.90
6054;DHT22;3055;50.886;14.814;2022-12-07T05:55:45;0.70;99.90
6054;DHT22;3055;50.886;14.814;2022-12-07T05:58:14;0.80;99.90
6054;DHT22;3055;50.886;14.814;2022-12-07T06:00:58;0.70;99.90
6054;DHT22;3055;50.886;14.814;2022-12-07T06:03:25;0.60;99.90
6054;DHT22;3055;50.886;14.814;2022-12-07T06:05:52;0.60;99.90
6054;DHT22;3055;50.886;14.814;2022-12-07T06:08:20;0.50;99.90
6054;DHT22;3055;50.886;14.814;2022-12-07T06:10:47;0.50;99.90
6054;DHT22;3055;50.886;14.814;2022-12-07T06:13:37;0.50;99.90
6054;DHT22;3055;50.886;14.814;2022-12-07T06:16:04;0.60;99.90
6054;DHT22;3055;50.886;14.814;2022-12-07T06:18:31;0.60;99.90
6054;DHT22;3055;50.886;14.814;2022-12-07T06:20:58;0.80;99.90
6054;DHT22;3055;50.886;14.814;2022-12-07T06:23:25;0.90;99.90
6054;DHT22;3055;50.886;14.814;2022-12-07T06:25:52;1.10;99.90
6054;DHT22;3055;50.886;14.814;2022-12-07T06:28:19;1.30;99.90
6054;DHT22;3055;50.886;14.814;2022-12-07T06:30:47;1.30;99.90
6054;DHT22;3055;50.886;14.814;2022-12-07T06:33:23;1.40;99.90
6054;DHT22;3055;50.886;14.814;2022-12-07T06:35:50;1.40;99.90
6054;DHT22;3055;50.886;14.814;2022-12-07T06:38:17;1.50;99.90
6054;DHT22;3055;50.886;14.814;2022-12-07T06:40:44;1.60;99.90
6054;DHT22;3055;50.886;14.814;2022-12-07T06:43:11;1.60;99.90
6054;DHT22;3055;50.886;14.814;2022-12-07T06:45:38;1.60;99.90
6054;DHT22;3055;50.886;14.814;2022-12-07T06:48:06;1.70;99.90
6054;DHT22;3055;50.886;14.814;2022-12-07T06:50:33;1.70;99.90
6054;DHT22;3055;50.886;14.814;2022-12-07T06:53:02;1.80;99.90
6054;DHT22;3055;50.886;14.814;2022-12-07T06:55:29;1.80;99.90
6054;DHT22;3055;50.886;14.814;2022-12-07T06:57:56;1.90;99.90
6054;DHT22;3055;50.886;14.814;2022-12-07T07:00:23;1.90;99.90
6054;DHT22;3055;50.886;14.814;2022-12-07T07:02:50;2.00;99.90
6054;DHT22;3055;50.886;14.814;2022-12-07T07:05:19;2.00;99.90
6054;DHT22;3055;50.886;14.814;2022-12-07T07:07:48;2.20;99.90
6054;DHT22;3055;50.886;14.814;2022-12-07T07:10:15;2.30;99.90
6054;DHT22;3055;50.886;14.814;2022-12-07T07:12:42;2.40;99.90
6054;DHT22;3055;50.886;14.814;2022-12-07T07:15:10;2.40;99.90
6054;DHT22;3055;50.886;14.814;2022-12-07T07:17:37;2.50;99.90
6054;DHT22;3055;50.886;14.814;2022-12-07T07:20:05;2.50;99.90
6054;DHT22;3055;50.886;14.814;2022-12-07T07:22:34;2.50;99.90
6054;DHT22;3055;50.886;14.814;2022-12-07T07:25:01;2.50;99.90
6054;DHT22;3055;50.886;14.814;2022-12-07T07:27:28;2.60;99.90
6054;DHT22;3055;50.886;14.814;2022-12-07T07:29:55;2.60;97.30
6054;DHT22;3055;50.886;14.814;2022-12-07T07:32:22;2.60;90.00
6054;DHT22;3055;50.886;14.814;2022-12-07T07:34:49;2.70;89.60
6054;DHT22;3055;50.886;14.814;2022-12-07T07:37:16;2.80;69.10
6054;DHT22;3055;50.886;14.814;2022-12-07T07:39:45;2.90;50.70
6054;DHT22;3055;50.886;14.814;2022-12-07T07:42:12;3.00;45.70
6054;DHT22;3055;50.886;14.814;2022-12-07T07:44:39;3.00;29.60
6054;DHT22;3055;50.886;14.814;2022-12-07T07:47:06;3.10;23.90
6054;DHT22;3055;50.886;14.814;2022-12-07T07:49:33;3.10;17.70
6054;DHT22;3055;50.886;14.814;2022-12-07T07:52:00;3.10;24.00
6054;DHT22;3055;50.886;14.814;2022-12-07T07:54:27;3.20;23.40
6054;DHT22;3055;50.886;14.814;2022-12-07T07:56:55;3.30;19.60
6054;DHT22;3055;50.886;14.814;2022-12-07T07:59:23;3.50;13.00
6054;DHT22;3055;50.886;14.814;2022-12-07T08:01:50;3.50;3.80
6054;DHT22;3055;50.886;14.814;2022-12-07T08:04:17;3.60;1.00
6054;DHT22;3055;50.886;14.814;2022-12-07T08:06:44;3.60;1.00
6054;DHT22;3055;50.886;14.814;2022-12-07T08:09:12;3.50;1.00
6054;DHT22;3055;50.886;14.814;2022-12-07T08:11:39;3.50;1.00
6054;DHT22;3055;50.886;14.814;2022-12-07T08:14:07;3.50;1.00
6054;DHT22;3055;50.886;14.814;2022-12-07T08:16:34;3.50;1.00
6054;DHT22;3055;50.886;14.814;2022-12-07T08:19:01;3.40;1.00
6054;DHT22;3055;50.886;14.814;2022-12-07T08:21:30;3.40;1.00
6054;DHT22;3055;50.886;14.814;2022-12-07T08:23:58;3.50;6.20
6054;DHT22;3055;50.886;14.814;2022-12-07T08:26:25;3.50;8.00
6054;DHT22;3055;50.886;14.814;2022-12-07T08:28:53;3.50;1.00
6054;DHT22;3055;50.886;14.814;2022-12-07T08:31:21;3.60;1.00
6054;DHT22;3055;50.886;14.814;2022-12-07T08:33:48;3.70;1.00
6054;DHT22;3055;50.886;14.814;2022-12-07T08:36:16;3.80;1.00
6054;DHT22;3055;50.886;14.814;2022-12-07T08:38:43;3.80;1.00
6054;DHT22;3055;50.886;14.814;2022-12-07T08:41:10;3.80;1.00
6054;DHT22;3055;50.886;14.814;2022-12-07T08:43:38;3.70;1.00
6054;DHT22;3055;50.886;14.814;2022-12-07T08:46:08;3.70;1.00
6054;DHT22;3055;50.886;14.814;2022-12-07T08:48:39;3.80;1.00
6054;DHT22;3055;50.886;14.814;2022-12-07T08:51:07;3.80;1.00
6054;DHT22;3055;50.886;14.814;2022-12-07T08:53:35;3.80;1.00
6054;DHT22;3055;50.886;14.814;2022-12-07T08:56:04;3.80;1.00
6054;DHT22;3055;50.886;14.814;2022-12-07T08:58:33;3.80;1.00
6054;DHT22;3055;50.886;14.814;2022-12-07T09:01:00;3.70;1.00
6054;DHT22;3055;50.886;14.814;2022-12-07T09:03:27;3.70;9.70
6054;DHT22;3055;50.886;14.814;2022-12-07T09:05:55;3.70;12.60
6054;DHT22;3055;50.886;14.814;2022-12-07T09:08:26;3.70;3.60
6054;DHT22;3055;50.886;14.814;2022-12-07T09:10:53;3.70;1.00
6054;DHT22;3055;50.886;14.814;2022-12-07T09:13:20;3.70;16.60
6054;DHT22;3055;50.886;14.814;2022-12-07T09:15:47;3.70;28.30
6054;DHT22;3055;50.886;14.814;2022-12-07T09:18:14;3.70;37.30
6054;DHT22;3055;50.886;14.814;2022-12-07T09:20:41;3.70;22.50
6054;DHT22;3055;50.886;14.814;2022-12-07T09:23:10;3.70;20.80
6054;DHT22;3055;50.886;14.814;2022-12-07T09:25:37;3.70;23.60
6054;DHT22;3055;50.886;14.814;2022-12-07T09:28:04;3.60;34.30
6054;DHT22;3055;50.886;14.814;2022-12-07T09:30:31;3.60;37.60
6054;DHT22;3055;50.886;14.814;2022-12-07T09:32:58;3.60;46.40
6054;DHT22;3055;50.886;14.814;2022-12-07T09:35:25;3.60;45.40
6054;DHT22;3055;50.886;14.814;2022-12-07T09:37:52;3.70;54.20
6054;DHT22;3055;50.886;14.814;2022-12-07T09:40:22;3.60;30.30
6054;DHT22;3055;50.886;14.814;2022-12-07T09:42:52;3.60;35.60
6054;DHT22;3055;50.886;14.814;2022-12-07T09:45:22;3.70;32.50
6054;DHT22;3055;50.886;14.814;2022-12-07T09:47:50;3.90;39.30
6054;DHT22;3055;50.886;14.814;2022-12-07T09:50:20;3.90;20.60
6054;DHT22;3055;50.886;14.814;2022-12-07T09:52:48;3.90;28.40
6054;DHT22;3055;50.886;14.814;2022-12-07T09:55:22;3.90;18.70
6054;DHT22;3055;50.886;14.814;2022-12-07T09:57:50;4.00;11.90
6054;DHT22;3055;50.886;14.814;2022-12-07T10:00:20;3.90;16.20
6054;DHT22;3055;50.886;14.814;2022-12-07T10:02:51;4.00;22.90
6054;DHT22;3055;50.886;14.814;2022-12-07T10:05:23;4.10;17.20
6054;DHT22;3055;50.886;14.814;2022-12-07T10:07:50;4.20;1.30
6054;DHT22;3055;50.886;14.814;2022-12-07T10:10:25;4.40;2.30
6054;DHT22;3055;50.886;14.814;2022-12-07T10:12:55;4.40;1.00
6054;DHT22;3055;50.886;14.814;2022-12-07T10:15:22;4.50;1.00
6054;DHT22;3055;50.886;14.814;2022-12-07T10:17:51;4.50;1.00
6054;DHT22;3055;50.886;14.814;2022-12-07T10:20:22;4.60;1.00
6054;DHT22;3055;50.886;14.814;2022-12-07T10:22:59;4.60;1.00
6054;DHT22;3055;50.886;14.814;2022-12-07T10:25:30;4.60;1.00
6054;DHT22;3055;50.886;14.814;2022-12-07T10:28:00;4.70;1.00
6054;DHT22;3055;50.886;14.814;2022-12-07T10:30:28;4.70;1.00
6054;DHT22;3055;50.886;14.814;2022-12-07T10:32:56;4.70;1.00
6054;DHT22;3055;50.886;14.814;2022-12-07T10:35:25;4.70;1.00
6054;DHT22;3055;50.886;14.814;2022-12-07T10:37:55;4.60;1.00
6054;DHT22;3055;50.886;14.814;2022-12-07T10:40:26;4.60;1.00
6054;DHT22;3055;50.886;14.814;2022-12-07T10:43:15;4.60;1.00
6054;DHT22;3055;50.886;14.814;2022-12-07T10:46:05;4.70;1.00
6054;DHT22;3055;50.886;14.814;2022-12-07T10:48:38;4.70;1.00
6054;DHT22;3055;50.886;14.814;2022-12-07T10:51:13;4.70;1.00
6054;DHT22;3055;50.886;14.814;2022-12-07T10:53:48;4.70;1.00
6054;DHT22;3055;50.886;14.814;2022-12-07T10:56:27;4.70;1.00
6054;DHT22;3055;50.886;14.814;2022-12-07T10:59:10;4.70;1.00
6054;DHT22;3055;50.886;14.814;2022-12-07T11:01:47;4.80;1.00
6054;DHT22;3055;50.886;14.814;2022-12-07T11:04:28;4.80;1.00
6054;DHT22;3055;50.886;14.814;2022-12-07T11:07:03;4.80;1.00
6054;DHT22;3055;50.886;14.814;2022-12-07T11:09:55;4.80;1.00
6054;DHT22;3055;50.886;14.814;2022-12-07T11:12:34;4.70;1.00
6054;DHT22;3055;50.886;14.814;2022-12-07T11:15:13;4.70;1.00
6054;DHT22;3055;50.886;14.814;2022-12-07T11:17:51;4.80;1.00
6054;DHT22;3055;50.886;14.814;2022-12-07T11:20:37;4.70;1.00
6054;DHT22;3055;50.886;14.814;2022-12-07T11:23:13;4.80;1.00
6054;DHT22;3055;50.886;14.814;2022-12-07T11:25:52;4.80;1.00
6054;DHT22;3055;50.886;14.814;2022-12-07T11:28:30;4.80;1.00
6054;DHT22;3055;50.886;14.814;2022-12-07T11:31:08;4.90;1.00
6054;DHT22;3055;50.886;14.814;2022-12-07T11:33:43;4.90;1.00
6054;DHT22;3055;50.886;14.814;2022-12-07T11:36:24;5.00;1.00
6054;DHT22;3055;50.886;14.814;2022-12-07T11:39:00;5.00;1.00
6054;DHT22;3055;50.886;14.814;2022-12-07T11:41:29;5.10;1.00
6054;DHT22;3055;50.886;14.814;2022-12-07T11:44:02;5.20;1.00
6054;DHT22;3055;50.886;14.814;2022-12-07T11:46:45;5.30;1.00
6054;DHT22;3055;50.886;14.814;2022-12-07T11:49:21;5.30;1.00
6054;DHT22;3055;50.886;14.814;2022-12-07T11:51:52;5.30;1.00
6054;DHT22;3055;50.886;14.814;2022-12-07T11:54:23;5.20;1.00
6054;DHT22;3055;50.886;14.814;2022-12-07T11:56:53;5.10;1.00
6054;DHT22;3055;50.886;14.814;2022-12-07T11:59:25;5.10;1.00
6054;DHT22;3055;50.886;14.814;2022-12-07T12:02:03;5.10;1.00
6054;DHT22;3055;50.886;14.814;2022-12-07T12:04:47;5.20;1.00
6054;DHT22;3055;50.886;14.814;2022-12-07T12:07:19;5.30;1.00
6054;DHT22;3055;50.886;14.814;2022-12-07T12:09:51;5.40;1.00
6054;DHT22;3055;50.886;14.814;2022-12-07T12:12:42;5.40;1.00
6054;DHT22;3055;50.886;14.814;2022-12-07T12:15:23;5.40;1.00
6054;DHT22;3055;50.886;14.814;2022-12-07T12:20:47;5.10;1.00
6054;DHT22;3055;50.886;14.814;2022-12-07T12:23:18;5.00;1.00
6054;DHT22;3055;50.886;14.814;2022-12-07T12:25:48;4.90;1.00
6054;DHT22;3055;50.886;14.814;2022-12-07T12:28:24;4.80;1.00
6054;DHT22;3055;50.886;14.814;2022-12-07T12:31:14;4.70;4.80
6054;DHT22;3055;50.886;14.814;2022-12-07T12:33:46;4.80;22.60
6054;DHT22;3055;50.886;14.814;2022-12-07T12:36:24;4.80;21.10
6054;DHT22;3055;50.886;14.814;2022-12-07T12:39:08;4.90;28.00
6054;DHT22;3055;50.886;14.814;2022-12-07T12:41:58;5.00;1.00
6054;DHT22;3055;50.886;14.814;2022-12-07T12:47:56;5.00;11.10
6054;DHT22;3055;50.886;14.814;2022-12-07T12:50:27;5.00;8.00
6054;DHT22;3055;50.886;14.814;2022-12-07T12:56:21;4.90;1.00
6054;DHT22;3055;50.886;14.814;2022-12-07T12:59:24;4.80;10.20
6054;DHT22;3055;50.886;14.814;2022-12-07T13:01:54;4.60;25.90
6054;DHT22;3055;50.886;14.814;2022-12-07T13:04:28;4.50;55.50
6054;DHT22;3055;50.886;14.814;2022-12-07T13:06:59;4.40;68.60
6054;DHT22;3055;50.886;14.814;2022-12-07T13:09:28;4.30;94.60
6054;DHT22;3055;50.886;14.814;2022-12-07T13:12:01;4.40;95.20
6054;DHT22;3055;50.886;14.814;2022-12-07T13:14:40;4.30;91.80
6054;DHT22;3055;50.886;14.814;2022-12-07T13:17:09;4.30;94.90
6054;DHT22;3055;50.886;14.814;2022-12-07T13:19:57;4.30;99.90
6054;DHT22;3055;50.886;14.814;2022-12-07T13:25:36;4.20;99.90
6054;DHT22;3055;50.886;14.814;2022-12-07T13:28:14;4.10;99.90
6054;DHT22;3055;50.886;14.814;2022-12-07T13:30:46;4.00;99.90
6054;DHT22;3055;50.886;14.814;2022-12-07T13:33:15;4.00;99.90
6054;DHT22;3055;50.886;14.814;2022-12-07T13:35:44;3.90;99.90
6054;DHT22;3055;50.886;14.814;2022-12-07T13:38:23;3.90;99.90
6054;DHT22;3055;50.886;14.814;2022-12-07T13:41:16;3.70;99.90
6054;DHT22;3055;50.886;14.814;2022-12-07T13:43:46;3.60;99.90
6054;DHT22;3055;50.886;14.814;2022-12-07T13:46:14;3.50;99.90
6054;DHT22;3055;50.886;14.814;2022-12-07T13:48:45;3.40;99.90
6054;DHT22;3055;50.886;14.814;2022-12-07T13:51:22;3.40;99.90
6054;DHT22;3055;50.886;14.814;2022-12-07T13:53:52;3.30;99.90
6054;DHT22;3055;50.886;14.814;2022-12-07T13:56:22;3.20;99.90
6054;DHT22;3055;50.886;14.814;2022-12-07T13:58:52;3.20;99.90
6054;DHT22;3055;50.886;14.814;2022-12-07T14:01:19;3.00;99.90
6054;DHT22;3055;50.886;14.814;2022-12-07T14:03:47;2.90;99.90
6054;DHT22;3055;50.886;14.814;2022-12-07T14:06:23;2.90;99.90
6054;DHT22;3055;50.886;14.814;2022-12-07T14:09:14;2.80;99.90
6054;DHT22;3055;50.886;14.814;2022-12-07T14:11:43;2.70;99.90
6054;DHT22;3055;50.886;14.814;2022-12-07T14:14:15;2.60;99.90
6054;DHT22;3055;50.886;14.814;2022-12-07T14:16:43;2.70;99.90
6054;DHT22;3055;50.886;14.814;2022-12-07T14:19:47;2.70;99.90
6054;DHT22;3055;50.886;14.814;2022-12-07T14:22:22;2.80;99.90
6054;DHT22;3055;50.886;14.814;2022-12-07T14:24:57;2.80;99.90
6054;DHT22;3055;50.886;14.814;2022-12-07T14:27:24;2.90;99.90
6054;DHT22;3055;50.886;14.814;2022-12-07T14:29:56;3.00;99.90
6054;DHT22;3055;50.886;14.814;2022-12-07T14:32:24;3.00;99.90
6054;DHT22;3055;50.886;14.814;2022-12-07T14:34:59;3.10;99.90
6054;DHT22;3055;50.886;14.814;2022-12-07T14:37:30;3.20;99.90
6054;DHT22;3055;50.886;14.814;2022-12-07T14:39:59;3.20;99.90
6054;DHT22;3055;50.886;14.814;2022-12-07T14:42:28;3.30;99.90
6054;DHT22;3055;50.886;14.814;2022-12-07T14:44:56;3.40;99.90
6054;DHT22;3055;50.886;14.814;2022-12-07T14:47:25;3.40;99.90
6054;DHT22;3055;50.886;14.814;2022-12-07T14:49:52;3.40;99.90
6054;DHT22;3055;50.886;14.814;2022-12-07T14:52:21;3.50;99.90
6054;DHT22;3055;50.886;14.814;2022-12-07T14:54:49;3.50;99.90
6054;DHT22;3055;50.886;14.814;2022-12-07T14:57:18;3.50;99.90
6054;DHT22;3055;50.886;14.814;2022-12-07T14:59:45;3.50;99.90
6054;DHT22;3055;50.886;14.814;2022-12-07T15:02:13;3.40;99.90
6054;DHT22;3055;50.886;14.814;2022-12-07T15:04:41;3.40;99.90
6054;DHT22;3055;50.886;14.814;2022-12-07T15:07:13;3.30;99.90
6054;DHT22;3055;50.886;14.814;2022-12-07T15:09:41;3.30;99.90
6054;DHT22;3055;50.886;14.814;2022-12-07T15:12:08;3.30;99.90
6054;DHT22;3055;50.886;14.814;2022-12-07T15:14:37;3.20;99.90
6054;DHT22;3055;50.886;14.814;2022-12-07T15:17:04;3.20;99.90
6054;DHT22;3055;50.886;14.814;2022-12-07T15:19:32;3.20;99.90
6054;DHT22;3055;50.886;14.814;2022-12-07T15:21:59;3.20;99.90
6054;DHT22;3055;50.886;14.814;2022-12-07T15:24:26;3.20;99.90
6054;DHT22;3055;50.886;14.814;2022-12-07T15:26:53;3.10;99.90
6054;DHT22;3055;50.886;14.814;2022-12-07T15:29:20;3.10;99.90
6054;DHT22;3055;50.886;14.814;2022-12-07T15:31:49;3.10;99.90
6054;DHT22;3055;50.886;14.814;2022-12-07T15:34:16;3.00;99.90
6054;DHT22;3055;50.886;14.814;2022-12-07T15:36:44;2.90;99.90
6054;DHT22;3055;50.886;14.814;2022-12-07T15:39:11;2.80;99.90
6054;DHT22;3055;50.886;14.814;2022-12-07T15:41:38;2.80;99.90
6054;DHT22;3055;50.886;14.814;2022-12-07T15:44:05;2.80;99.90
6054;DHT22;3055;50.886;14.814;2022-12-07T15:46:51;2.70;99.90
6054;DHT22;3055;50.886;14.814;2022-12-07T15:49:19;2.70;99.90
6054;DHT22;3055;50.886;14.814;2022-12-07T15:51:46;2.60;99.90
6054;DHT22;3055;50.886;14.814;2022-12-07T15:54:17;2.50;99.90
6054;DHT22;3055;50.886;14.814;2022-12-07T15:56:45;2.50;99.90
6054;DHT22;3055;50.886;14.814;2022-12-07T15:59:12;2.50;99.90
6054;DHT22;3055;50.886;14.814;2022-12-07T16:01:39;2.50;99.90
6054;DHT22;3055;50.886;14.814;2022-12-07T16:04:08;2.50;99.90
6054;DHT22;3055;50.886;14.814;2022-12-07T16:06:35;2.60;99.90
6054;DHT22;3055;50.886;14.814;2022-12-07T16:09:02;2.60;99.90
6054;DHT22;3055;50.886;14.814;2022-12-07T16:11:30;2.60;99.90
6054;DHT22;3055;50.886;14.814;2022-12-07T16:13:57;2.60;99.90
6054;DHT22;3055;50.886;14.814;2022-12-07T16:16:24;2.50;99.90
6054;DHT22;3055;50.886;14.814;2022-12-07T16:18:51;2.40;99.90
6054;DHT22;3055;50.886;14.814;2022-12-07T16:21:21;2.30;99.90
6054;DHT22;3055;50.886;14.814;2022-12-07T16:23:48;2.30;99.90
6054;DHT22;3055;50.886;14.814;2022-12-07T16:26:17;2.40;99.90
6054;DHT22;3055;50.886;14.814;2022-12-07T16:28:45;2.40;99.90
6054;DHT22;3055;50.886;14.814;2022-12-07T16:31:14;2.30;99.90
6054;DHT22;3055;50.886;14.814;2022-12-07T16:33:42;2.30;99.90
6054;DHT22;3055;50.886;14.814;2022-12-07T16:36:11;2.30;99.90
6054;DHT22;3055;50.886;14.814;2022-12-07T16:38:40;2.30;99.90
6054;DHT22;3055;50.886;14.814;2022-12-07T16:41:07;2.30;99.90
6054;DHT22;3055;50.886;14.814;2022-12-07T16:43:37;2.40;99.90